Williamsport, Indiana
Current Conditions -  °F | °C
As of 3:35 AM on Tuesday 21 Oct 2014 (Local Time) from KDNV Reporting Station
Overcast Overcast  
Wind Chill:   Ceiling: 6000
Heat Index:   Visibility: 7mi
Dew Point:   Wind: 5mph
Humidity: 95%   Direction: 300°WNW
Pressure: 29.98"   Gusts: NA
Location:  40.29°N, 87.29°W
Report Text: KDNV 210735Z AUTO 30004KT 7SM OVC060 09/08 A2998 RMK AO2 T00860079
Loading
Personal Weather Stations






























Interactive Weather Map
Tropical Storm Tracking
New forecast layout! Learn more

10-Day Weather Forecast

Advertisements
Track Severe Weather on mobile